createdAt,value
2019-03-30T00:00:54.551Z,96.20
2019-03-30T00:03:23.444Z,96.20
2019-03-30T00:05:52.314Z,96.30
2019-03-30T00:08:21.208Z,96.30
2019-03-30T00:10:50.162Z,95.30
2019-03-30T00:13:19.069Z,95.20
2019-03-30T00:15:48.148Z,95.40
2019-03-30T00:18:17.087Z,95.80
2019-03-30T00:20:45.957Z,96.00
2019-03-30T00:23:14.939Z,95.70
2019-03-30T00:25:43.843Z,95.50
2019-03-30T00:28:12.744Z,95.10
2019-03-30T00:30:41.614Z,94.40
2019-03-30T00:33:10.522Z,94.50
2019-03-30T00:35:39.413Z,94.70
2019-03-30T00:38:08.284Z,95.30
2019-03-30T00:40:37.184Z,95.70
2019-03-30T00:43:06.100Z,95.80
2019-03-30T00:45:34.968Z,96.10
2019-03-30T00:48:03.915Z,96.40
2019-03-30T00:50:32.922Z,96.70
2019-03-30T00:53:01.845Z,96.80
2019-03-30T00:55:30.746Z,96.90
2019-03-30T00:57:59.707Z,96.70
2019-03-30T01:00:28.609Z,96.80
2019-03-30T01:02:57.567Z,97.00
2019-03-30T01:05:26.502Z,96.40
2019-03-30T01:07:55.385Z,95.90
2019-03-30T01:10:24.529Z,96.10
2019-03-30T01:12:53.552Z,96.40
2019-03-30T01:15:22.517Z,96.50
2019-03-30T01:17:51.431Z,96.50
2019-03-30T01:20:20.354Z,96.40
2019-03-30T01:22:49.368Z,96.20
2019-03-30T01:25:18.242Z,96.40
2019-03-30T01:27:47.208Z,96.40
2019-03-30T01:30:23.025Z,96.20
2019-03-30T01:32:47.236Z,96.10
2019-03-30T01:35:16.335Z,96.40
2019-03-30T01:37:45.345Z,96.40
2019-03-30T01:40:14.452Z,96.50
2019-03-30T01:42:43.310Z,96.60
2019-03-30T01:45:12.304Z,96.60
2019-03-30T01:47:41.223Z,96.70
2019-03-30T01:50:17.131Z,96.50
2019-03-30T01:52:41.059Z,96.60
2019-03-30T01:55:10.036Z,96.50
2019-03-30T01:57:38.897Z,96.40
2019-03-30T02:00:10.345Z,96.70
2019-03-30T02:02:39.216Z,96.60
2019-03-30T02:05:08.195Z,96.80
2019-03-30T02:07:37.114Z,96.70
2019-03-30T02:10:07.885Z,96.50
2019-03-30T02:12:36.774Z,96.40
2019-03-30T02:15:07.047Z,96.50
2019-03-30T02:17:35.904Z,96.60
2019-03-30T02:20:07.758Z,96.60
2019-03-30T02:22:36.711Z,96.20
2019-03-30T02:25:07.288Z,95.90
2019-03-30T02:27:36.169Z,96.10
2019-03-30T02:30:06.727Z,96.20
2019-03-30T02:32:35.568Z,96.50
2019-03-30T02:35:06.166Z,96.60
2019-03-30T02:37:35.065Z,96.60
2019-03-30T02:40:04.965Z,96.80
2019-03-30T02:42:33.977Z,96.60
2019-03-30T02:45:02.916Z,96.70
2019-03-30T02:47:31.772Z,96.50
2019-03-30T02:50:00.806Z,96.50
2019-03-30T02:52:29.649Z,96.50
2019-03-30T02:54:58.535Z,96.50
2019-03-30T02:57:27.470Z,96.50
2019-03-30T02:59:56.364Z,96.60
2019-03-30T03:02:25.249Z,96.50
2019-03-30T03:04:54.143Z,96.90
2019-03-30T03:07:23.029Z,97.10
2019-03-30T03:09:51.917Z,97.20
2019-03-30T03:12:20.807Z,96.70
2019-03-30T03:14:51.738Z,97.00
2019-03-30T03:17:20.289Z,97.10
2019-03-30T03:19:49.221Z,97.00
2019-03-30T03:22:18.143Z,97.10
2019-03-30T03:24:47.043Z,96.70
2019-03-30T03:27:15.918Z,96.80
2019-03-30T03:29:44.891Z,97.20
2019-03-30T03:32:13.824Z,97.30
2019-03-30T03:34:42.736Z,97.50
2019-03-30T03:37:11.581Z,97.50
2019-03-30T03:39:40.495Z,97.60
2019-03-30T03:42:09.498Z,97.60
2019-03-30T03:44:38.387Z,97.60
2019-03-30T03:47:07.277Z,97.60
2019-03-30T03:49:36.138Z,97.30
2019-03-30T03:52:06.028Z,97.50
2019-03-30T03:54:34.915Z,97.10
2019-03-30T03:57:04.370Z,96.30
2019-03-30T03:59:35.082Z,96.40
2019-03-30T04:02:04.466Z,96.90
2019-03-30T04:04:34.271Z,97.10
2019-03-30T04:07:03.190Z,97.30
2019-03-30T04:09:35.049Z,97.20
2019-03-30T04:12:06.909Z,97.20
2019-03-30T04:14:37.559Z,97.10
2019-03-30T04:17:06.570Z,96.70
2019-03-30T04:19:35.467Z,96.70
2019-03-30T04:22:04.614Z,96.90
2019-03-30T04:24:34.367Z,97.10
2019-03-30T04:27:03.299Z,97.30
2019-03-30T04:29:32.276Z,97.30
2019-03-30T04:32:01.251Z,97.10
2019-03-30T04:34:30.160Z,97.10
2019-03-30T04:36:59.140Z,97.40
2019-03-30T04:39:28.039Z,97.30
2019-03-30T04:41:56.947Z,97.10
2019-03-30T04:44:25.950Z,97.20
2019-03-30T04:46:54.933Z,97.20
2019-03-30T04:49:25.004Z,97.10
2019-03-30T04:51:57.663Z,97.20
2019-03-30T04:54:26.282Z,97.40
2019-03-30T04:56:55.266Z,97.30
2019-03-30T05:30:54.902Z,97.50
2019-03-30T05:35:29.995Z,97.30
2019-03-30T05:45:37.025Z,96.70
2019-03-30T05:52:49.555Z,96.30
2019-03-30T05:57:54.224Z,96.10
2019-03-30T06:52:18.289Z,49.60
2019-03-30T07:02:09.212Z,49.30
2019-03-30T07:04:39.174Z,46.80
2019-03-30T07:07:09.452Z,47.70
2019-03-30T07:09:54.980Z,47.20
2019-03-30T07:12:25.726Z,47.90
2019-03-30T07:14:59.022Z,50.30
2019-03-30T07:17:28.166Z,49.50
2019-03-30T07:19:58.459Z,49.80
2019-03-30T07:22:27.372Z,49.90
2019-03-30T07:24:56.329Z,50.60
2019-03-30T07:27:25.288Z,50.60
2019-03-30T07:29:54.232Z,50.70
2019-03-30T07:32:23.631Z,50.00
2019-03-30T07:34:52.637Z,50.00
2019-03-30T07:37:21.672Z,49.30
2019-03-30T07:39:50.605Z,49.40
2019-03-30T07:42:19.550Z,48.50
2019-03-30T07:44:48.561Z,48.80
2019-03-30T07:47:17.450Z,49.70
2019-03-30T07:49:46.507Z,49.10
2019-03-30T07:52:15.488Z,49.90
2019-03-30T07:54:44.501Z,50.00
2019-03-30T07:57:17.117Z,51.10
2019-03-30T07:59:46.129Z,51.40
2019-03-30T08:02:15.104Z,53.00
2019-03-30T08:04:48.327Z,52.80
2019-03-30T08:07:17.337Z,55.80
2019-03-30T08:09:54.949Z,54.20
2019-03-30T08:12:23.917Z,55.60
2019-03-30T08:14:57.119Z,56.30
2019-03-30T08:17:26.051Z,56.20
2019-03-30T08:20:09.792Z,57.60
2019-03-30T08:22:40.508Z,59.80
2019-03-30T08:25:09.620Z,59.60
2019-03-30T08:27:38.510Z,59.50
2019-03-30T08:30:07.973Z,60.30
2019-03-30T08:32:36.821Z,61.00
2019-03-30T08:35:06.946Z,59.70
2019-03-30T08:37:37.542Z,61.00
2019-03-30T08:40:12.718Z,61.60
2019-03-30T08:42:44.240Z,60.00
2019-03-30T08:45:14.392Z,61.50
2019-03-30T08:47:43.431Z,61.00
2019-03-30T08:50:15.988Z,61.00
2019-03-30T08:52:45.392Z,59.30
2019-03-30T08:55:16.928Z,60.50
2019-03-30T08:57:52.667Z,58.80
2019-03-30T09:00:40.489Z,58.60
2019-03-30T09:03:09.971Z,57.70
2019-03-30T09:05:39.617Z,57.00
2019-03-30T09:08:12.107Z,58.60
2019-03-30T09:10:41.016Z,58.60
2019-03-30T09:13:10.020Z,60.50
2019-03-30T09:15:38.972Z,56.60
2019-03-30T09:18:07.842Z,57.10
2019-03-30T09:20:38.337Z,58.30
2019-03-30T09:23:07.214Z,58.80
2019-03-30T09:25:36.215Z,57.20
2019-03-30T09:28:08.027Z,58.00
2019-03-30T09:30:38.567Z,57.00
2019-03-30T09:33:08.604Z,56.40
2019-03-30T09:35:37.571Z,55.30
2019-03-30T09:38:06.587Z,56.10
2019-03-30T09:40:35.528Z,56.50
2019-03-30T09:43:07.412Z,55.60
2019-03-30T09:45:36.384Z,56.80
2019-03-30T09:48:05.304Z,55.90
2019-03-30T09:50:34.265Z,55.90
2019-03-30T09:53:03.194Z,53.30
2019-03-30T09:55:32.405Z,53.60
2019-03-30T09:58:01.302Z,53.60
2019-03-30T10:00:30.236Z,54.70
2019-03-30T10:02:59.100Z,51.40
2019-03-30T10:05:28.038Z,52.10
2019-03-30T10:07:56.994Z,53.90
2019-03-30T10:10:25.938Z,53.60
2019-03-30T10:12:54.925Z,55.10
2019-03-30T10:15:23.870Z,54.20
2019-03-30T10:17:52.849Z,52.80
2019-03-30T10:20:21.779Z,51.80
2019-03-30T10:22:51.705Z,50.10
2019-03-30T10:25:27.174Z,48.80
2019-03-30T10:28:02.863Z,49.30
2019-03-30T10:30:31.897Z,49.40
2019-03-30T10:33:00.810Z,47.60
2019-03-30T10:35:29.827Z,49.70
2019-03-30T10:37:58.685Z,46.10
2019-03-30T10:40:27.770Z,47.50
2019-03-30T10:42:56.735Z,48.20
2019-03-30T10:45:25.740Z,47.90
2019-03-30T10:47:54.641Z,47.10
2019-03-30T10:50:23.594Z,48.50
2019-03-30T10:52:52.454Z,46.40
2019-03-30T10:55:21.393Z,45.90
2019-03-30T10:57:50.360Z,46.70
2019-03-30T11:00:36.919Z,44.30
2019-03-30T11:03:05.874Z,44.10
2019-03-30T11:05:36.350Z,42.00
2019-03-30T11:08:07.579Z,42.70
2019-03-30T11:10:36.487Z,40.60
2019-03-30T11:13:05.365Z,38.50
2019-03-30T11:15:34.551Z,40.00
2019-03-30T11:18:03.501Z,37.10
2019-03-30T11:20:32.393Z,37.10
2019-03-30T11:23:01.268Z,38.80
2019-03-30T11:25:30.174Z,36.50
2019-03-30T11:27:59.009Z,37.30
2019-03-30T11:30:27.879Z,38.50
2019-03-30T11:32:56.641Z,36.70
2019-03-30T11:35:25.514Z,36.90
2019-03-30T11:37:54.489Z,36.10
2019-03-30T11:40:23.352Z,37.30
2019-03-30T11:42:52.194Z,35.40
2019-03-30T11:45:21.043Z,36.10
2019-03-30T11:47:49.895Z,35.70
2019-03-30T11:50:18.814Z,34.10
2019-03-30T11:52:47.701Z,34.80
2019-03-30T11:55:22.101Z,35.80
2019-03-30T11:57:47.061Z,35.10
2019-03-30T12:00:16.055Z,34.50
2019-03-30T12:02:45.013Z,34.60
2019-03-30T12:05:13.928Z,34.00
2019-03-30T12:07:42.769Z,37.70
2019-03-30T12:10:11.871Z,35.30
2019-03-30T12:12:40.750Z,36.40
2019-03-30T12:15:11.260Z,35.90
2019-03-30T12:17:41.236Z,35.40
2019-03-30T12:20:11.764Z,32.20
2019-03-30T12:22:51.952Z,34.10
2019-03-30T12:25:34.518Z,34.40
2019-03-30T12:27:51.402Z,36.00
2019-03-30T12:30:20.268Z,35.80
2019-03-30T12:32:49.149Z,36.90
2019-03-30T12:35:18.020Z,35.90
2019-03-30T12:37:46.913Z,36.20
2019-03-30T12:40:15.778Z,35.90
2019-03-30T12:42:44.641Z,36.20
2019-03-30T12:45:13.800Z,35.80
2019-03-30T12:47:42.680Z,37.50
2019-03-30T12:50:12.456Z,36.40
2019-03-30T12:52:41.419Z,35.10
2019-03-30T12:55:10.368Z,35.80
2019-03-30T12:57:39.227Z,36.00
2019-03-30T13:00:08.867Z,37.30
2019-03-30T13:02:37.750Z,35.70
2019-03-30T13:05:07.562Z,36.00
2019-03-30T13:07:36.550Z,36.80
2019-03-30T13:10:06.892Z,36.50
2019-03-30T13:12:35.777Z,36.60
2019-03-30T13:15:08.886Z,36.00
2019-03-30T13:17:37.687Z,36.60
2019-03-30T13:20:07.640Z,35.60
2019-03-30T13:22:36.584Z,36.60
2019-03-30T13:25:06.477Z,34.70
2019-03-30T13:27:35.341Z,34.30
2019-03-30T13:30:08.514Z,33.10
2019-03-30T13:32:40.463Z,35.10
2019-03-30T13:35:09.286Z,35.50
2019-03-30T13:37:38.214Z,35.80
2019-03-30T13:40:08.280Z,36.50
2019-03-30T13:42:38.627Z,38.10
2019-03-30T13:45:11.531Z,35.50
2019-03-30T13:50:25.134Z,37.20
2019-03-30T13:52:54.064Z,36.70
2019-03-30T13:55:24.496Z,37.60
2019-03-30T13:57:53.471Z,37.00
2019-03-30T14:03:11.713Z,37.70
2019-03-30T14:05:40.569Z,38.10
2019-03-30T14:08:09.478Z,37.30
2019-03-30T14:10:39.119Z,38.00
2019-03-30T14:13:08.187Z,37.80
2019-03-30T14:15:37.031Z,38.50
2019-03-30T14:18:05.908Z,37.00
2019-03-30T14:20:34.800Z,36.80
2019-03-30T14:23:06.363Z,36.30
2019-03-30T14:25:35.200Z,36.60
2019-03-30T14:28:04.092Z,35.00
2019-03-30T14:30:32.952Z,36.20
2019-03-30T14:33:03.413Z,35.70
2019-03-30T14:35:32.266Z,33.40
2019-03-30T14:38:01.132Z,32.40
2019-03-30T14:40:30.039Z,32.70
2019-03-30T14:42:58.918Z,33.20
2019-03-30T14:45:27.748Z,33.90
2019-03-30T14:47:58.000Z,34.80
2019-03-30T14:50:27.071Z,31.70
2019-03-30T14:52:55.943Z,30.70
2019-03-30T14:55:24.806Z,31.40
2019-03-30T14:57:53.753Z,32.80
2019-03-30T15:00:22.736Z,34.50
2019-03-30T15:02:51.696Z,36.80
2019-03-30T15:05:20.585Z,35.80
2019-03-30T15:07:49.457Z,34.40
2019-03-30T15:10:18.282Z,35.20
2019-03-30T15:12:47.165Z,35.00
2019-03-30T15:15:15.991Z,33.40
2019-03-30T15:17:44.794Z,32.80
2019-03-30T15:20:13.911Z,33.90
2019-03-30T15:22:42.800Z,32.90
2019-03-30T15:25:12.112Z,32.30
2019-03-30T15:27:40.970Z,32.10
2019-03-30T15:30:10.198Z,33.90
2019-03-30T15:32:39.055Z,32.60
2019-03-30T15:35:08.962Z,31.60
2019-03-30T15:37:37.835Z,33.90
2019-03-30T15:40:07.036Z,33.40
2019-03-30T15:42:40.167Z,34.40
2019-03-30T15:45:08.480Z,33.10
2019-03-30T15:47:37.268Z,33.50
2019-03-30T15:50:06.889Z,34.80
2019-03-30T15:52:35.640Z,35.20
2019-03-30T15:55:06.519Z,34.10
2019-03-30T15:57:35.972Z,36.80
2019-03-30T16:00:08.052Z,35.00
2019-03-30T16:02:36.905Z,35.70
2019-03-30T16:05:07.068Z,36.50
2019-03-30T16:07:35.912Z,36.10
2019-03-30T16:10:06.032Z,36.90
2019-03-30T16:12:34.969Z,35.30
2019-03-30T16:15:05.745Z,35.10
2019-03-30T16:17:34.560Z,35.50
2019-03-30T16:20:04.420Z,34.90
2019-03-30T16:22:33.372Z,33.80
2019-03-30T16:25:02.198Z,35.30
2019-03-30T16:27:30.983Z,37.30
2019-03-30T16:29:59.813Z,36.70
2019-03-30T16:32:28.678Z,37.50
2019-03-30T16:34:57.428Z,37.90
2019-03-30T16:37:26.219Z,38.20
2019-03-30T16:39:55.095Z,37.90
2019-03-30T16:42:24.781Z,38.70
2019-03-30T16:44:53.649Z,39.50
2019-03-30T16:47:22.595Z,38.00
2019-03-30T16:49:51.365Z,39.30
2019-03-30T16:52:20.202Z,39.40
2019-03-30T16:54:48.953Z,40.50
2019-03-30T16:57:17.820Z,39.20
2019-03-30T16:59:46.661Z,41.10
2019-03-30T17:02:15.508Z,42.80
2019-03-30T17:04:44.359Z,46.30
2019-03-30T17:07:13.207Z,47.20
2019-03-30T17:09:51.006Z,47.90
2019-03-30T17:12:19.792Z,49.60
2019-03-30T17:14:48.651Z,49.80
2019-03-30T17:17:17.545Z,51.70
2019-03-30T17:19:46.455Z,54.30
2019-03-30T17:22:15.349Z,54.20
2019-03-30T17:24:47.044Z,55.80
2019-03-30T17:27:15.947Z,57.90
2019-03-30T17:29:44.805Z,58.00
2019-03-30T17:32:13.848Z,57.80
2019-03-30T17:34:42.814Z,58.30
2019-03-30T17:37:14.481Z,59.10
2019-03-30T17:39:42.210Z,60.70
2019-03-30T17:42:11.072Z,61.10
2019-03-30T17:44:39.983Z,61.90
2019-03-30T17:47:08.929Z,62.50
2019-03-30T17:49:39.502Z,62.50
2019-03-30T17:52:08.502Z,63.50
2019-03-30T17:54:39.860Z,62.90
2019-03-30T17:57:10.060Z,62.90
2019-03-30T17:59:38.961Z,64.40
2019-03-30T18:02:08.377Z,64.60
2019-03-30T18:04:40.388Z,65.60
2019-03-30T18:07:09.389Z,66.90
2019-03-30T18:09:38.365Z,67.60
2019-03-30T18:12:08.860Z,68.00
2019-03-30T18:14:37.774Z,67.60
2019-03-30T18:17:06.657Z,67.50
2019-03-30T18:19:35.583Z,68.50
2019-03-30T18:22:04.468Z,70.00
2019-03-30T18:24:33.296Z,70.60
2019-03-30T18:27:02.400Z,71.60
2019-03-30T18:29:31.469Z,73.50
2019-03-30T18:32:00.422Z,73.50
2019-03-30T18:34:30.211Z,73.50
2019-03-30T18:37:22.704Z,73.00
2019-03-30T18:39:56.133Z,73.80
2019-03-30T18:42:22.446Z,73.80
2019-03-30T18:44:54.485Z,75.00
2019-03-30T18:47:23.506Z,75.50
2019-03-30T18:49:52.455Z,76.00
2019-03-30T18:52:22.814Z,77.10
2019-03-30T18:54:51.855Z,77.20
2019-03-30T18:57:20.789Z,77.50
2019-03-30T18:59:49.746Z,78.10
2019-03-30T19:02:19.354Z,78.60
2019-03-30T19:04:48.605Z,79.50
2019-03-30T19:07:17.562Z,78.40
2019-03-30T19:09:46.446Z,78.80
2019-03-30T19:12:15.363Z,79.00
2019-03-30T19:14:44.343Z,79.40
2019-03-30T19:17:13.220Z,80.00
2019-03-30T19:19:42.153Z,79.30
2019-03-30T19:22:11.043Z,79.70
2019-03-30T19:24:39.962Z,80.80
2019-03-30T19:27:08.858Z,81.10
2019-03-30T19:29:37.766Z,81.60
2019-03-30T19:32:06.635Z,82.30
2019-03-30T19:34:35.702Z,81.80
2019-03-30T19:37:04.593Z,82.40
2019-03-30T19:39:36.250Z,83.00
2019-03-30T19:42:05.132Z,82.80
2019-03-30T19:44:34.092Z,82.50
2019-03-30T19:47:02.925Z,83.00
2019-03-30T19:49:31.840Z,81.90
2019-03-30T19:52:00.692Z,81.30
2019-03-30T19:54:29.647Z,81.90
2019-03-30T19:57:00.880Z,81.70
2019-03-30T19:59:29.831Z,81.10
2019-03-30T20:01:58.737Z,81.80
2019-03-30T20:04:27.656Z,82.10
2019-03-30T20:06:56.536Z,82.30
2019-03-30T20:09:25.430Z,82.50
2019-03-30T20:11:54.302Z,83.20
2019-03-30T20:14:23.147Z,83.80
2019-03-30T20:16:52.131Z,83.30
2019-03-30T20:19:22.536Z,83.10
2019-03-30T20:21:51.542Z,83.70
2019-03-30T20:24:20.441Z,84.00
2019-03-30T20:26:49.331Z,83.40
2019-03-30T20:29:25.270Z,84.10
2019-03-30T20:31:49.005Z,84.50
2019-03-30T20:34:17.990Z,84.60
2019-03-30T20:36:46.885Z,84.60
2019-03-30T20:39:15.732Z,82.60
2019-03-30T20:41:44.720Z,83.40
2019-03-30T20:44:13.600Z,83.80
2019-03-30T20:46:43.819Z,84.60
2019-03-30T20:49:12.835Z,84.70
2019-03-30T20:51:41.760Z,85.70
2019-03-30T20:54:10.620Z,86.00
2019-03-30T20:56:39.523Z,86.90
2019-03-30T20:59:08.379Z,86.30
2019-03-30T21:01:38.474Z,86.30
2019-03-30T21:04:07.546Z,86.00
2019-03-30T21:06:36.462Z,85.90
2019-03-30T21:09:07.071Z,86.30
2019-03-30T21:11:36.289Z,86.00
2019-03-30T21:14:05.276Z,86.30
2019-03-30T21:16:38.030Z,86.80
2019-03-30T21:19:09.950Z,87.00
2019-03-30T21:21:38.833Z,87.30
2019-03-30T21:24:07.673Z,87.10
2019-03-30T21:26:36.587Z,86.90
2019-03-30T21:29:05.477Z,87.40
2019-03-30T21:31:34.390Z,87.10
2019-03-30T21:34:03.293Z,87.80
2019-03-30T21:36:32.186Z,88.20
2019-03-30T21:39:14.639Z,88.40
2019-03-30T21:41:47.011Z,88.10
2019-03-30T21:52:51.647Z,88.50
2019-03-30T21:55:22.106Z,89.10
2019-03-30T21:57:55.689Z,88.50
2019-03-30T22:00:49.251Z,89.10
2019-03-30T22:03:15.528Z,89.50
2019-03-30T22:05:55.328Z,90.10
2019-03-30T22:11:27.022Z,90.30
2019-03-30T22:14:07.542Z,90.20
2019-03-30T22:16:51.515Z,90.20
2019-03-30T22:19:15.496Z,90.10
2019-03-30T22:24:41.201Z,90.00
2019-03-30T22:27:13.755Z,90.40
2019-03-30T22:29:44.547Z,90.20
2019-03-30T22:32:12.934Z,90.50
2019-03-30T22:34:50.479Z,91.30
2019-03-30T22:37:39.735Z,90.80
2019-03-30T22:40:09.593Z,90.80
2019-03-30T22:45:35.760Z,90.60
2019-03-30T22:48:41.543Z,90.30
2019-03-30T22:51:18.571Z,90.00
2019-03-30T22:53:43.850Z,90.30
2019-03-30T22:56:14.485Z,90.70
2019-03-30T22:58:45.206Z,90.80
2019-03-30T23:01:21.495Z,91.20
2019-03-30T23:03:59.315Z,91.10
2019-03-30T23:09:47.488Z,91.00
2019-03-30T23:12:18.448Z,90.90
2019-03-30T23:14:53.950Z,90.90
2019-03-30T23:17:26.420Z,91.20
2019-03-30T23:19:57.020Z,90.50
2019-03-30T23:25:29.560Z,90.80
2019-03-30T23:28:01.056Z,91.00
2019-03-30T23:30:30.105Z,91.50
2019-03-30T23:32:59.137Z,91.90
2019-03-30T23:35:35.597Z,92.10
2019-03-30T23:38:19.767Z,92.20
2019-03-30T23:40:50.130Z,92.30
2019-03-30T23:43:23.489Z,92.30
2019-03-30T23:46:29.810Z,92.20
2019-03-30T23:48:24.705Z,92.10
2019-03-30T23:51:00.693Z,91.20
2019-03-30T23:57:15.736Z,91.10
2019-03-30T23:59:44.678Z,91.70
